sensor_id;sensor_type;location;lat;lon;timestamp;temperature;humidity
21778;DHT22;11050;52.222;20.916;2023-05-29T00:00:56;11.70;91.30
21778;DHT22;11050;52.222;20.916;2023-05-29T00:03:22;11.70;91.60
21778;DHT22;11050;52.222;20.916;2023-05-29T00:05:48;11.60;91.80
21778;DHT22;11050;52.222;20.916;2023-05-29T00:08:14;11.60;92.30
21778;DHT22;11050;52.222;20.916;2023-05-29T00:10:40;11.50;93.20
21778;DHT22;11050;52.222;20.916;2023-05-29T00:13:06;11.60;93.30
21778;DHT22;11050;52.222;20.916;2023-05-29T00:15:32;11.50;93.70
21778;DHT22;11050;52.222;20.916;2023-05-29T00:17:58;11.50;94.20
21778;DHT22;11050;52.222;20.916;2023-05-29T00:20:23;11.50;94.60
21778;DHT22;11050;52.222;20.916;2023-05-29T00:22:49;11.50;95.00
21778;DHT22;11050;52.222;20.916;2023-05-29T00:25:15;11.40;95.40
21778;DHT22;11050;52.222;20.916;2023-05-29T00:27:41;11.40;95.80
21778;DHT22;11050;52.222;20.916;2023-05-29T00:30:07;11.40;96.20
21778;DHT22;11050;52.222;20.916;2023-05-29T00:32:33;11.40;96.50
21778;DHT22;11050;52.222;20.916;2023-05-29T00:34:59;11.30;96.80
21778;DHT22;11050;52.222;20.916;2023-05-29T00:37:25;11.30;97.20
21778;DHT22;11050;52.222;20.916;2023-05-29T00:39:51;11.20;97.70
21778;DHT22;11050;52.222;20.916;2023-05-29T00:42:17;11.20;98.20
21778;DHT22;11050;52.222;20.916;2023-05-29T00:44:42;11.20;98.70
21778;DHT22;11050;52.222;20.916;2023-05-29T00:47:08;11.20;99.10
21778;DHT22;11050;52.222;20.916;2023-05-29T00:49:36;11.20;99.30
21778;DHT22;11050;52.222;20.916;2023-05-29T00:52:03;11.20;99.50
21778;DHT22;11050;52.222;20.916;2023-05-29T00:54:34;11.20;99.70
21778;DHT22;11050;52.222;20.916;2023-05-29T00:57:02;11.10;99.70
21778;DHT22;11050;52.222;20.916;2023-05-29T00:59:31;11.10;99.90
21778;DHT22;11050;52.222;20.916;2023-05-29T01:01:59;11.10;99.90
21778;DHT22;11050;52.222;20.916;2023-05-29T01:04:27;11.10;99.90
21778;DHT22;11050;52.222;20.916;2023-05-29T01:06:53;11.10;99.90
21778;DHT22;11050;52.222;20.916;2023-05-29T01:09:19;11.00;99.90
21778;DHT22;11050;52.222;20.916;2023-05-29T01:12:03;11.00;99.90
21778;DHT22;11050;52.222;20.916;2023-05-29T01:20:38;10.90;99.90
21778;DHT22;11050;52.222;20.916;2023-05-29T01:26:50;10.80;99.90
21778;DHT22;11050;52.222;20.916;2023-05-29T01:29:19;10.70;99.90
21778;DHT22;11050;52.222;20.916;2023-05-29T01:31:48;10.70;99.90
21778;DHT22;11050;52.222;20.916;2023-05-29T01:34:15;10.70;99.90
21778;DHT22;11050;52.222;20.916;2023-05-29T01:36:40;10.70;99.90
21778;DHT22;11050;52.222;20.916;2023-05-29T01:39:07;10.70;99.90
21778;DHT22;11050;52.222;20.916;2023-05-29T01:41:34;10.70;99.90
21778;DHT22;11050;52.222;20.916;2023-05-29T01:44:05;10.60;99.90
21778;DHT22;11050;52.222;20.916;2023-05-29T01:46:37;10.60;99.90
21778;DHT22;11050;52.222;20.916;2023-05-29T01:49:05;10.50;99.90
21778;DHT22;11050;52.222;20.916;2023-05-29T01:51:31;10.50;99.90
21778;DHT22;11050;52.222;20.916;2023-05-29T01:53:58;10.50;99.90
21778;DHT22;11050;52.222;20.916;2023-05-29T01:56:26;10.50;99.90
21778;DHT22;11050;52.222;20.916;2023-05-29T01:58:54;10.50;99.90
21778;DHT22;11050;52.222;20.916;2023-05-29T02:01:24;10.40;99.90
21778;DHT22;11050;52.222;20.916;2023-05-29T02:03:50;10.40;99.90
21778;DHT22;11050;52.222;20.916;2023-05-29T02:06:19;10.40;99.90
21778;DHT22;11050;52.222;20.916;2023-05-29T02:08:45;10.40;99.90
21778;DHT22;11050;52.222;20.916;2023-05-29T02:11:12;10.30;99.90
21778;DHT22;11050;52.222;20.916;2023-05-29T02:13:38;10.30;99.90
21778;DHT22;11050;52.222;20.916;2023-05-29T02:16:04;10.30;99.90
21778;DHT22;11050;52.222;20.916;2023-05-29T02:18:30;10.30;99.90
21778;DHT22;11050;52.222;20.916;2023-05-29T02:20:56;10.30;99.90
21778;DHT22;11050;52.222;20.916;2023-05-29T02:23:22;10.30;99.90
21778;DHT22;11050;52.222;20.916;2023-05-29T02:25:47;10.20;99.90
21778;DHT22;11050;52.222;20.916;2023-05-29T02:28:13;10.20;99.90
21778;DHT22;11050;52.222;20.916;2023-05-29T02:30:39;10.20;99.90
21778;DHT22;11050;52.222;20.916;2023-05-29T02:33:05;10.20;99.90
21778;DHT22;11050;52.222;20.916;2023-05-29T02:35:31;10.20;99.90
21778;DHT22;11050;52.222;20.916;2023-05-29T02:37:57;10.20;99.90
21778;DHT22;11050;52.222;20.916;2023-05-29T02:40:23;10.10;99.90
21778;DHT22;11050;52.222;20.916;2023-05-29T02:42:49;10.10;99.90
21778;DHT22;11050;52.222;20.916;2023-05-29T02:45:16;10.10;99.90
21778;DHT22;11050;52.222;20.916;2023-05-29T02:47:42;10.10;99.90
21778;DHT22;11050;52.222;20.916;2023-05-29T02:50:08;10.10;99.90
21778;DHT22;11050;52.222;20.916;2023-05-29T02:52:34;10.00;99.90
21778;DHT22;11050;52.222;20.916;2023-05-29T02:55:02;10.00;99.90
21778;DHT22;11050;52.222;20.916;2023-05-29T02:57:29;10.00;99.90
21778;DHT22;11050;52.222;20.916;2023-05-29T02:59:55;10.00;99.90
21778;DHT22;11050;52.222;20.916;2023-05-29T03:02:20;10.00;99.90
21778;DHT22;11050;52.222;20.916;2023-05-29T03:04:46;10.00;99.90
21778;DHT22;11050;52.222;20.916;2023-05-29T03:07:15;10.00;99.90
21778;DHT22;11050;52.222;20.916;2023-05-29T03:09:41;10.00;99.90
21778;DHT22;11050;52.222;20.916;2023-05-29T03:12:07;10.00;99.90
21778;DHT22;11050;52.222;20.916;2023-05-29T03:14:33;10.00;99.90
21778;DHT22;11050;52.222;20.916;2023-05-29T03:17:03;10.00;99.90
21778;DHT22;11050;52.222;20.916;2023-05-29T03:19:29;10.00;99.90
21778;DHT22;11050;52.222;20.916;2023-05-29T03:21:55;10.00;99.90
21778;DHT22;11050;52.222;20.916;2023-05-29T03:24:20;10.00;99.90
21778;DHT22;11050;52.222;20.916;2023-05-29T03:26:46;10.10;99.90
21778;DHT22;11050;52.222;20.916;2023-05-29T03:29:12;10.10;99.90
21778;DHT22;11050;52.222;20.916;2023-05-29T03:31:37;10.10;99.90
21778;DHT22;11050;52.222;20.916;2023-05-29T03:34:03;10.20;99.90
21778;DHT22;11050;52.222;20.916;2023-05-29T03:36:29;10.20;99.90
21778;DHT22;11050;52.222;20.916;2023-05-29T03:38:54;10.20;99.90
21778;DHT22;11050;52.222;20.916;2023-05-29T03:41:20;10.20;99.90
21778;DHT22;11050;52.222;20.916;2023-05-29T03:43:46;10.30;99.90
21778;DHT22;11050;52.222;20.916;2023-05-29T03:46:12;10.40;99.90
21778;DHT22;11050;52.222;20.916;2023-05-29T03:48:37;10.40;99.90
21778;DHT22;11050;52.222;20.916;2023-05-29T03:51:04;10.50;99.90
21778;DHT22;11050;52.222;20.916;2023-05-29T03:53:30;10.60;99.90
21778;DHT22;11050;52.222;20.916;2023-05-29T03:55:56;10.60;99.90
21778;DHT22;11050;52.222;20.916;2023-05-29T03:58:21;10.70;99.90
21778;DHT22;11050;52.222;20.916;2023-05-29T04:00:47;10.80;99.90
21778;DHT22;11050;52.222;20.916;2023-05-29T04:03:13;10.90;99.90
21778;DHT22;11050;52.222;20.916;2023-05-29T04:05:38;11.00;99.90
21778;DHT22;11050;52.222;20.916;2023-05-29T04:08:05;11.10;99.90
21778;DHT22;11050;52.222;20.916;2023-05-29T04:10:31;11.20;99.90
21778;DHT22;11050;52.222;20.916;2023-05-29T04:12:59;11.30;99.90
21778;DHT22;11050;52.222;20.916;2023-05-29T04:15:29;11.40;99.90
21778;DHT22;11050;52.222;20.916;2023-05-29T04:17:55;11.50;99.90
21778;DHT22;11050;52.222;20.916;2023-05-29T04:20:21;11.60;99.90
21778;DHT22;11050;52.222;20.916;2023-05-29T04:22:47;11.70;99.90
21778;DHT22;11050;52.222;20.916;2023-05-29T04:25:13;11.80;99.90
21778;DHT22;11050;52.222;20.916;2023-05-29T04:27:38;11.90;99.90
21778;DHT22;11050;52.222;20.916;2023-05-29T04:30:05;12.00;99.90
21778;DHT22;11050;52.222;20.916;2023-05-29T04:32:32;12.10;99.90
21778;DHT22;11050;52.222;20.916;2023-05-29T04:34:59;12.20;99.90
21778;DHT22;11050;52.222;20.916;2023-05-29T04:37:31;12.30;99.90
21778;DHT22;11050;52.222;20.916;2023-05-29T04:39:57;12.40;99.90
21778;DHT22;11050;52.222;20.916;2023-05-29T04:42:23;12.60;99.90
21778;DHT22;11050;52.222;20.916;2023-05-29T04:44:51;12.70;99.90
21778;DHT22;11050;52.222;20.916;2023-05-29T04:47:18;12.80;99.90
21778;DHT22;11050;52.222;20.916;2023-05-29T04:49:45;13.00;99.90
21778;DHT22;11050;52.222;20.916;2023-05-29T04:52:14;13.20;99.90
21778;DHT22;11050;52.222;20.916;2023-05-29T04:54:41;13.30;99.90
21778;DHT22;11050;52.222;20.916;2023-05-29T04:57:06;13.50;99.90
21778;DHT22;11050;52.222;20.916;2023-05-29T04:59:32;13.60;99.90
21778;DHT22;11050;52.222;20.916;2023-05-29T05:01:57;13.80;99.90
21778;DHT22;11050;52.222;20.916;2023-05-29T05:04:23;13.90;99.90
21778;DHT22;11050;52.222;20.916;2023-05-29T05:06:49;14.00;99.90
21778;DHT22;11050;52.222;20.916;2023-05-29T05:09:15;14.20;99.90
21778;DHT22;11050;52.222;20.916;2023-05-29T05:11:41;14.20;99.90
21778;DHT22;11050;52.222;20.916;2023-05-29T05:14:06;14.30;99.60
21778;DHT22;11050;52.222;20.916;2023-05-29T05:16:32;14.50;98.90
21778;DHT22;11050;52.222;20.916;2023-05-29T05:18:58;14.50;98.50
21778;DHT22;11050;52.222;20.916;2023-05-29T05:21:24;14.60;97.60
21778;DHT22;11050;52.222;20.916;2023-05-29T05:23:49;14.70;96.90
21778;DHT22;11050;52.222;20.916;2023-05-29T05:26:15;14.80;96.00
21778;DHT22;11050;52.222;20.916;2023-05-29T05:28:41;14.90;94.00
21778;DHT22;11050;52.222;20.916;2023-05-29T05:31:06;15.00;92.60
21778;DHT22;11050;52.222;20.916;2023-05-29T05:33:32;15.00;92.00
21778;DHT22;11050;52.222;20.916;2023-05-29T05:35:58;15.20;91.50
21778;DHT22;11050;52.222;20.916;2023-05-29T05:38:24;15.20;91.40
21778;DHT22;11050;52.222;20.916;2023-05-29T05:40:49;15.30;90.70
21778;DHT22;11050;52.222;20.916;2023-05-29T05:43:15;15.50;90.50
21778;DHT22;11050;52.222;20.916;2023-05-29T05:45:41;15.60;90.30
21778;DHT22;11050;52.222;20.916;2023-05-29T05:48:08;15.60;90.60
21778;DHT22;11050;52.222;20.916;2023-05-29T05:50:34;15.80;90.60
21778;DHT22;11050;52.222;20.916;2023-05-29T05:53:00;15.80;89.70
21778;DHT22;11050;52.222;20.916;2023-05-29T05:55:26;15.90;89.40
21778;DHT22;11050;52.222;20.916;2023-05-29T05:57:53;16.00;88.20
21778;DHT22;11050;52.222;20.916;2023-05-29T06:00:22;16.10;87.30
21778;DHT22;11050;52.222;20.916;2023-05-29T06:02:48;16.20;87.00
21778;DHT22;11050;52.222;20.916;2023-05-29T06:05:14;16.30;87.00
21778;DHT22;11050;52.222;20.916;2023-05-29T06:07:40;16.40;87.60
21778;DHT22;11050;52.222;20.916;2023-05-29T06:10:06;16.50;85.40
21778;DHT22;11050;52.222;20.916;2023-05-29T06:12:33;16.60;84.00
21778;DHT22;11050;52.222;20.916;2023-05-29T06:15:00;16.70;83.00
21778;DHT22;11050;52.222;20.916;2023-05-29T06:17:25;16.80;82.20
21778;DHT22;11050;52.222;20.916;2023-05-29T06:19:52;16.80;82.20
21778;DHT22;11050;52.222;20.916;2023-05-29T06:22:18;17.00;79.30
21778;DHT22;11050;52.222;20.916;2023-05-29T06:24:44;17.10;77.80
21778;DHT22;11050;52.222;20.916;2023-05-29T06:27:10;17.20;78.00
21778;DHT22;11050;52.222;20.916;2023-05-29T06:29:36;17.30;77.40
21778;DHT22;11050;52.222;20.916;2023-05-29T06:32:02;17.40;76.40
21778;DHT22;11050;52.222;20.916;2023-05-29T06:34:27;17.40;75.60
21778;DHT22;11050;52.222;20.916;2023-05-29T06:36:53;17.50;75.50
21778;DHT22;11050;52.222;20.916;2023-05-29T06:39:19;17.70;73.80
21778;DHT22;11050;52.222;20.916;2023-05-29T06:41:45;17.80;72.10
21778;DHT22;11050;52.222;20.916;2023-05-29T06:44:11;17.90;71.10
21778;DHT22;11050;52.222;20.916;2023-05-29T06:46:37;18.00;71.10
21778;DHT22;11050;52.222;20.916;2023-05-29T06:49:03;18.00;71.20
21778;DHT22;11050;52.222;20.916;2023-05-29T06:51:29;18.20;70.60
21778;DHT22;11050;52.222;20.916;2023-05-29T06:53:55;18.20;68.10
21778;DHT22;11050;52.222;20.916;2023-05-29T06:56:21;18.40;68.60
21778;DHT22;11050;52.222;20.916;2023-05-29T06:58:47;18.40;67.80
21778;DHT22;11050;52.222;20.916;2023-05-29T07:01:13;18.50;67.20
21778;DHT22;11050;52.222;20.916;2023-05-29T07:03:38;18.50;68.00
21778;DHT22;11050;52.222;20.916;2023-05-29T07:06:04;18.60;67.30
21778;DHT22;11050;52.222;20.916;2023-05-29T07:08:31;18.70;66.30
21778;DHT22;11050;52.222;20.916;2023-05-29T07:10:57;18.80;65.30
21778;DHT22;11050;52.222;20.916;2023-05-29T07:13:25;18.90;64.60
21778;DHT22;11050;52.222;20.916;2023-05-29T07:15:54;19.00;63.40
21778;DHT22;11050;52.222;20.916;2023-05-29T07:18:19;19.00;63.40
21778;DHT22;11050;52.222;20.916;2023-05-29T07:20:45;19.10;62.50
21778;DHT22;11050;52.222;20.916;2023-05-29T07:23:11;19.20;63.00
21778;DHT22;11050;52.222;20.916;2023-05-29T07:25:36;19.30;62.30
21778;DHT22;11050;52.222;20.916;2023-05-29T07:28:02;19.40;61.60
21778;DHT22;11050;52.222;20.916;2023-05-29T07:30:27;19.40;61.70
21778;DHT22;11050;52.222;20.916;2023-05-29T07:32:53;19.60;61.10
21778;DHT22;11050;52.222;20.916;2023-05-29T07:35:19;19.70;59.60
21778;DHT22;11050;52.222;20.916;2023-05-29T07:37:45;19.70;58.80
21778;DHT22;11050;52.222;20.916;2023-05-29T07:40:10;19.70;58.00
21778;DHT22;11050;52.222;20.916;2023-05-29T07:42:36;19.80;58.10
21778;DHT22;11050;52.222;20.916;2023-05-29T07:45:02;19.90;58.60
21778;DHT22;11050;52.222;20.916;2023-05-29T07:47:28;19.90;58.20
21778;DHT22;11050;52.222;20.916;2023-05-29T07:49:53;20.00;57.80
21778;DHT22;11050;52.222;20.916;2023-05-29T07:52:19;20.10;57.80
21778;DHT22;11050;52.222;20.916;2023-05-29T07:54:45;20.10;57.10
21778;DHT22;11050;52.222;20.916;2023-05-29T07:57:11;20.20;57.00
21778;DHT22;11050;52.222;20.916;2023-05-29T07:59:37;20.20;56.00
21778;DHT22;11050;52.222;20.916;2023-05-29T08:02:05;20.30;56.70
21778;DHT22;11050;52.222;20.916;2023-05-29T08:04:31;20.40;56.40
21778;DHT22;11050;52.222;20.916;2023-05-29T08:06:58;20.50;57.30
21778;DHT22;11050;52.222;20.916;2023-05-29T08:09:25;20.60;57.80
21778;DHT22;11050;52.222;20.916;2023-05-29T08:11:51;20.70;56.50
21778;DHT22;11050;52.222;20.916;2023-05-29T08:14:17;20.70;55.50
21778;DHT22;11050;52.222;20.916;2023-05-29T08:16:42;20.80;55.40
21778;DHT22;11050;52.222;20.916;2023-05-29T08:19:08;20.80;55.90
21778;DHT22;11050;52.222;20.916;2023-05-29T08:21:34;20.90;55.70
21778;DHT22;11050;52.222;20.916;2023-05-29T08:24:01;21.00;55.60
21778;DHT22;11050;52.222;20.916;2023-05-29T08:26:27;21.10;54.80
21778;DHT22;11050;52.222;20.916;2023-05-29T08:28:53;21.10;54.60
21778;DHT22;11050;52.222;20.916;2023-05-29T08:31:20;21.30;54.00
21778;DHT22;11050;52.222;20.916;2023-05-29T08:33:45;21.30;53.90
21778;DHT22;11050;52.222;20.916;2023-05-29T08:36:11;21.40;53.30
21778;DHT22;11050;52.222;20.916;2023-05-29T08:38:37;21.40;53.00
21778;DHT22;11050;52.222;20.916;2023-05-29T08:41:02;21.40;52.60
21778;DHT22;11050;52.222;20.916;2023-05-29T08:43:33;21.40;51.50
21778;DHT22;11050;52.222;20.916;2023-05-29T08:46:01;21.40;52.10
21778;DHT22;11050;52.222;20.916;2023-05-29T08:48:29;21.40;51.50
21778;DHT22;11050;52.222;20.916;2023-05-29T08:50:57;21.50;51.80
21778;DHT22;11050;52.222;20.916;2023-05-29T08:53:24;21.50;51.30
21778;DHT22;11050;52.222;20.916;2023-05-29T08:55:52;21.50;51.30
21778;DHT22;11050;52.222;20.916;2023-05-29T08:58:19;21.60;52.50
21778;DHT22;11050;52.222;20.916;2023-05-29T09:00:49;21.60;52.20
21778;DHT22;11050;52.222;20.916;2023-05-29T09:03:16;21.70;51.50
21778;DHT22;11050;52.222;20.916;2023-05-29T09:05:43;21.80;52.00
21778;DHT22;11050;52.222;20.916;2023-05-29T09:08:10;21.80;51.80
21778;DHT22;11050;52.222;20.916;2023-05-29T09:10:41;21.90;52.00
21778;DHT22;11050;52.222;20.916;2023-05-29T09:13:09;21.90;49.40
21778;DHT22;11050;52.222;20.916;2023-05-29T09:15:35;21.90;51.40
21778;DHT22;11050;52.222;20.916;2023-05-29T09:18:04;22.00;49.40
21778;DHT22;11050;52.222;20.916;2023-05-29T09:20:30;21.90;49.00
21778;DHT22;11050;52.222;20.916;2023-05-29T09:22:56;21.90;49.10
21778;DHT22;11050;52.222;20.916;2023-05-29T09:25:26;21.90;49.00
21778;DHT22;11050;52.222;20.916;2023-05-29T09:28:06;22.00;50.60
21778;DHT22;11050;52.222;20.916;2023-05-29T09:33:04;22.20;50.90
21778;DHT22;11050;52.222;20.916;2023-05-29T09:35:36;22.30;51.00
21778;DHT22;11050;52.222;20.916;2023-05-29T09:38:05;22.50;50.10
21778;DHT22;11050;52.222;20.916;2023-05-29T09:40:34;22.70;47.90
21778;DHT22;11050;52.222;20.916;2023-05-29T09:43:02;22.70;47.60
21778;DHT22;11050;52.222;20.916;2023-05-29T09:45:42;22.70;47.60
21778;DHT22;11050;52.222;20.916;2023-05-29T09:48:14;22.80;48.20
21778;DHT22;11050;52.222;20.916;2023-05-29T09:50:45;22.90;48.70
21778;DHT22;11050;52.222;20.916;2023-05-29T09:53:21;23.00;48.80
21778;DHT22;11050;52.222;20.916;2023-05-29T09:55:50;23.10;48.60
21778;DHT22;11050;52.222;20.916;2023-05-29T09:58:21;23.30;47.20
21778;DHT22;11050;52.222;20.916;2023-05-29T10:00:48;23.40;45.70
21778;DHT22;11050;52.222;20.916;2023-05-29T10:03:16;23.40;45.50
21778;DHT22;11050;52.222;20.916;2023-05-29T10:05:47;23.40;44.80
21778;DHT22;11050;52.222;20.916;2023-05-29T10:08:18;23.30;44.70
21778;DHT22;11050;52.222;20.916;2023-05-29T10:11:01;23.40;44.80
21778;DHT22;11050;52.222;20.916;2023-05-29T10:13:32;23.40;45.20
21778;DHT22;11050;52.222;20.916;2023-05-29T10:16:03;23.40;44.40
21778;DHT22;11050;52.222;20.916;2023-05-29T10:18:38;23.40;43.90
21778;DHT22;11050;52.222;20.916;2023-05-29T10:21:07;23.40;43.90
21778;DHT22;11050;52.222;20.916;2023-05-29T10:23:38;23.40;44.60
21778;DHT22;11050;52.222;20.916;2023-05-29T10:26:29;23.60;45.10
21778;DHT22;11050;52.222;20.916;2023-05-29T10:32:24;23.90;45.90
21778;DHT22;11050;52.222;20.916;2023-05-29T10:35:18;24.10;43.30
21778;DHT22;11050;52.222;20.916;2023-05-29T10:37:57;24.20;44.50
21778;DHT22;11050;52.222;20.916;2023-05-29T10:40:33;24.30;43.10
21778;DHT22;11050;52.222;20.916;2023-05-29T10:42:59;24.30;43.40
21778;DHT22;11050;52.222;20.916;2023-05-29T10:47:53;24.60;42.30
21778;DHT22;11050;52.222;20.916;2023-05-29T10:50:36;24.70;42.50
21778;DHT22;11050;52.222;20.916;2023-05-29T10:53:10;24.90;41.20
21778;DHT22;11050;52.222;20.916;2023-05-29T10:55:40;25.10;42.40
21778;DHT22;11050;52.222;20.916;2023-05-29T10:58:14;25.30;41.80
21778;DHT22;11050;52.222;20.916;2023-05-29T11:00:45;25.50;40.20
21778;DHT22;11050;52.222;20.916;2023-05-29T11:03:17;25.60;39.00
21778;DHT22;11050;52.222;20.916;2023-05-29T11:06:21;25.70;40.00
21778;DHT22;11050;52.222;20.916;2023-05-29T11:08:55;25.90;39.10
21778;DHT22;11050;52.222;20.916;2023-05-29T11:13:55;26.20;38.90
21778;DHT22;11050;52.222;20.916;2023-05-29T11:18:51;26.50;40.20
21778;DHT22;11050;52.222;20.916;2023-05-29T11:24:28;27.00;37.90
21778;DHT22;11050;52.222;20.916;2023-05-29T11:26:56;26.90;37.20
21778;DHT22;11050;52.222;20.916;2023-05-29T11:29:28;26.60;36.60
21778;DHT22;11050;52.222;20.916;2023-05-29T11:32:05;26.30;37.10
21778;DHT22;11050;52.222;20.916;2023-05-29T11:34:33;26.00;37.60
21778;DHT22;11050;52.222;20.916;2023-05-29T11:37:02;25.70;38.30
21778;DHT22;11050;52.222;20.916;2023-05-29T11:39:30;25.50;39.30
21778;DHT22;11050;52.222;20.916;2023-05-29T11:42:00;25.50;38.90
21778;DHT22;11050;52.222;20.916;2023-05-29T11:44:26;25.70;40.00
21778;DHT22;11050;52.222;20.916;2023-05-29T11:47:10;26.10;39.60
21778;DHT22;11050;52.222;20.916;2023-05-29T11:49:36;26.60;37.90
21778;DHT22;11050;52.222;20.916;2023-05-29T11:52:13;27.00;37.40
21778;DHT22;11050;52.222;20.916;2023-05-29T11:54:40;27.50;36.50
21778;DHT22;11050;52.222;20.916;2023-05-29T11:57:17;27.90;36.00
21778;DHT22;11050;52.222;20.916;2023-05-29T11:59:44;28.30;36.00
21778;DHT22;11050;52.222;20.916;2023-05-29T12:02:10;28.60;36.00
21778;DHT22;11050;52.222;20.916;2023-05-29T12:04:36;28.90;35.10
21778;DHT22;11050;52.222;20.916;2023-05-29T12:07:17;29.30;34.40
21778;DHT22;11050;52.222;20.916;2023-05-29T12:09:43;29.70;33.40
21778;DHT22;11050;52.222;20.916;2023-05-29T12:12:09;30.00;32.60
21778;DHT22;11050;52.222;20.916;2023-05-29T12:14:34;30.20;32.80
21778;DHT22;11050;52.222;20.916;2023-05-29T12:17:00;30.50;31.70
21778;DHT22;11050;52.222;20.916;2023-05-29T12:19:27;30.70;31.00
21778;DHT22;11050;52.222;20.916;2023-05-29T12:21:53;30.90;31.70
21778;DHT22;11050;52.222;20.916;2023-05-29T12:24:19;31.10;30.30
21778;DHT22;11050;52.222;20.916;2023-05-29T12:26:45;31.20;30.20
21778;DHT22;11050;52.222;20.916;2023-05-29T12:29:12;31.10;29.50
21778;DHT22;11050;52.222;20.916;2023-05-29T12:31:38;30.90;30.70
21778;DHT22;11050;52.222;20.916;2023-05-29T12:34:09;30.80;30.00
21778;DHT22;11050;52.222;20.916;2023-05-29T12:36:36;30.60;30.10
21778;DHT22;11050;52.222;20.916;2023-05-29T12:39:06;30.60;30.30
21778;DHT22;11050;52.222;20.916;2023-05-29T12:41:37;30.50;30.70
21778;DHT22;11050;52.222;20.916;2023-05-29T12:44:05;30.30;30.40
21778;DHT22;11050;52.222;20.916;2023-05-29T12:46:56;30.00;31.20
21778;DHT22;11050;52.222;20.916;2023-05-29T12:49:21;29.80;31.40
21778;DHT22;11050;52.222;20.916;2023-05-29T12:51:51;29.90;32.10
21778;DHT22;11050;52.222;20.916;2023-05-29T12:54:17;30.10;31.20
21778;DHT22;11050;52.222;20.916;2023-05-29T12:56:44;30.30;30.30
21778;DHT22;11050;52.222;20.916;2023-05-29T12:59:11;30.60;30.00
21778;DHT22;11050;52.222;20.916;2023-05-29T13:01:37;30.60;30.20
21778;DHT22;11050;52.222;20.916;2023-05-29T13:04:04;30.60;30.00
21778;DHT22;11050;52.222;20.916;2023-05-29T13:06:35;30.80;30.00
21778;DHT22;11050;52.222;20.916;2023-05-29T13:09:02;31.00;29.20
21778;DHT22;11050;52.222;20.916;2023-05-29T13:11:28;31.10;29.60
21778;DHT22;11050;52.222;20.916;2023-05-29T13:13:54;31.30;28.90
21778;DHT22;11050;52.222;20.916;2023-05-29T13:16:19;31.60;29.00
21778;DHT22;11050;52.222;20.916;2023-05-29T13:18:45;31.80;28.60
21778;DHT22;11050;52.222;20.916;2023-05-29T13:21:11;31.90;28.40
21778;DHT22;11050;52.222;20.916;2023-05-29T13:23:37;32.10;27.90
21778;DHT22;11050;52.222;20.916;2023-05-29T13:26:06;32.30;27.70
21778;DHT22;11050;52.222;20.916;2023-05-29T13:28:32;32.50;27.70
21778;DHT22;11050;52.222;20.916;2023-05-29T13:30:58;32.60;27.70
21778;DHT22;11050;52.222;20.916;2023-05-29T13:33:24;32.80;27.40
21778;DHT22;11050;52.222;20.916;2023-05-29T13:35:50;32.90;27.00
21778;DHT22;11050;52.222;20.916;2023-05-29T13:38:15;33.00;26.70
21778;DHT22;11050;52.222;20.916;2023-05-29T13:40:41;33.10;27.10
21778;DHT22;11050;52.222;20.916;2023-05-29T13:43:07;33.30;27.10
21778;DHT22;11050;52.222;20.916;2023-05-29T13:45:32;33.30;27.10
21778;DHT22;11050;52.222;20.916;2023-05-29T13:47:58;33.10;27.50
21778;DHT22;11050;52.222;20.916;2023-05-29T13:50:24;33.20;26.90
21778;DHT22;11050;52.222;20.916;2023-05-29T13:52:50;33.30;26.90
21778;DHT22;11050;52.222;20.916;2023-05-29T13:55:16;33.60;26.80
21778;DHT22;11050;52.222;20.916;2023-05-29T13:57:41;33.60;26.30
21778;DHT22;11050;52.222;20.916;2023-05-29T14:00:09;33.70;26.30
21778;DHT22;11050;52.222;20.916;2023-05-29T14:02:36;33.70;26.20
21778;DHT22;11050;52.222;20.916;2023-05-29T14:05:02;33.80;26.80
21778;DHT22;11050;52.222;20.916;2023-05-29T14:07:28;34.00;26.30
21778;DHT22;11050;52.222;20.916;2023-05-29T14:09:54;34.10;26.30
21778;DHT22;11050;52.222;20.916;2023-05-29T14:12:20;34.30;25.90
21778;DHT22;11050;52.222;20.916;2023-05-29T14:14:46;34.50;26.40
21778;DHT22;11050;52.222;20.916;2023-05-29T14:17:11;34.60;26.00
21778;DHT22;11050;52.222;20.916;2023-05-29T14:19:37;34.50;25.00
21778;DHT22;11050;52.222;20.916;2023-05-29T14:22:04;34.50;25.10
21778;DHT22;11050;52.222;20.916;2023-05-29T14:24:29;34.50;25.80
21778;DHT22;11050;52.222;20.916;2023-05-29T14:26:55;34.50;25.90
21778;DHT22;11050;52.222;20.916;2023-05-29T14:29:21;34.50;25.90
21778;DHT22;11050;52.222;20.916;2023-05-29T14:31:47;34.50;25.40
21778;DHT22;11050;52.222;20.916;2023-05-29T14:34:12;34.30;25.20
21778;DHT22;11050;52.222;20.916;2023-05-29T14:36:38;33.90;25.50
21778;DHT22;11050;52.222;20.916;2023-05-29T14:39:05;33.60;26.50
21778;DHT22;11050;52.222;20.916;2023-05-29T14:41:31;33.20;26.30
21778;DHT22;11050;52.222;20.916;2023-05-29T14:43:58;33.00;26.40
21778;DHT22;11050;52.222;20.916;2023-05-29T14:46:27;32.70;26.60
21778;DHT22;11050;52.222;20.916;2023-05-29T14:48:57;32.40;27.00
21778;DHT22;11050;52.222;20.916;2023-05-29T14:51:25;32.00;26.90
21778;DHT22;11050;52.222;20.916;2023-05-29T14:53:51;31.50;27.70
21778;DHT22;11050;52.222;20.916;2023-05-29T14:56:17;31.00;28.40
21778;DHT22;11050;52.222;20.916;2023-05-29T14:58:45;30.60;28.90
21778;DHT22;11050;52.222;20.916;2023-05-29T15:01:11;30.70;29.80
21778;DHT22;11050;52.222;20.916;2023-05-29T15:03:36;30.80;28.40
21778;DHT22;11050;52.222;20.916;2023-05-29T15:06:05;31.00;28.20
21778;DHT22;11050;52.222;20.916;2023-05-29T15:08:32;31.00;28.30
21778;DHT22;11050;52.222;20.916;2023-05-29T15:11:00;30.80;28.70
21778;DHT22;11050;52.222;20.916;2023-05-29T15:13:28;30.90;28.70
21778;DHT22;11050;52.222;20.916;2023-05-29T15:15:54;31.00;29.60
21778;DHT22;11050;52.222;20.916;2023-05-29T15:18:25;31.20;28.30
21778;DHT22;11050;52.222;20.916;2023-05-29T15:20:52;31.60;28.60
21778;DHT22;11050;52.222;20.916;2023-05-29T15:23:18;31.90;28.00
21778;DHT22;11050;52.222;20.916;2023-05-29T15:25:47;32.10;27.30
21778;DHT22;11050;52.222;20.916;2023-05-29T15:28:13;32.40;27.10
21778;DHT22;11050;52.222;20.916;2023-05-29T15:30:38;32.60;26.90
21778;DHT22;11050;52.222;20.916;2023-05-29T15:33:04;32.70;26.90
21778;DHT22;11050;52.222;20.916;2023-05-29T15:35:33;32.80;27.30
21778;DHT22;11050;52.222;20.916;2023-05-29T15:37:59;32.90;26.20
21778;DHT22;11050;52.222;20.916;2023-05-29T15:40:25;33.10;25.70
21778;DHT22;11050;52.222;20.916;2023-05-29T15:42:51;33.20;26.10